createdAt,value
2022-08-01T00:02:02.954Z,50.49
2022-08-01T00:04:33.054Z,54.28
2022-08-01T00:07:01.201Z,50.79
2022-08-01T00:09:31.606Z,52.22
2022-08-01T00:12:00.186Z,51.37
2022-08-01T00:14:32.225Z,50.73
2022-08-01T00:17:05.365Z,51.64
2022-08-01T00:19:40.296Z,52.72
2022-08-01T00:22:10.708Z,51.08
2022-08-01T00:24:45.907Z,50.38
2022-08-01T00:27:16.650Z,52.23
2022-08-01T00:30:12.216Z,53.08
2022-08-01T00:32:40.354Z,54.07
2022-08-01T00:35:10.354Z,54.05
2022-08-01T00:37:38.344Z,53.25
2022-08-01T00:40:07.541Z,53.17
2022-08-01T00:42:42.976Z,53.06
2022-08-01T00:45:21.894Z,53.74
2022-08-01T00:47:54.914Z,53.42
2022-08-01T00:50:29.586Z,53.42
2022-08-01T00:52:57.973Z,54.32
2022-08-01T00:55:28.829Z,54.20
2022-08-01T00:58:03.655Z,54.30
2022-08-01T01:00:52.093Z,52.87
2022-08-01T01:03:37.920Z,53.81
2022-08-01T01:06:28.973Z,53.28
2022-08-01T01:09:14.061Z,53.16
2022-08-01T01:11:50.032Z,53.57
2022-08-01T01:14:35.649Z,54.21
2022-08-01T01:17:06.253Z,54.02
2022-08-01T01:19:46.713Z,54.55
2022-08-01T01:22:26.581Z,54.35
2022-08-01T01:25:07.849Z,54.49
2022-08-01T01:28:02.005Z,54.47
2022-08-01T01:30:35.459Z,55.24
2022-08-01T01:33:11.522Z,54.76
2022-08-01T01:35:44.941Z,54.59
2022-08-01T01:38:17.167Z,55.32
2022-08-01T01:40:47.394Z,56.06
2022-08-01T01:43:19.085Z,55.99
2022-08-01T01:45:52.921Z,55.22
2022-08-01T01:48:23.459Z,55.01
2022-08-01T01:50:56.441Z,55.42
2022-08-01T01:53:25.652Z,55.09
2022-08-01T01:55:56.577Z,55.59
2022-08-01T01:58:27.189Z,56.53
2022-08-01T02:01:03.004Z,56.20
2022-08-01T02:03:33.614Z,55.02
2022-08-01T02:06:02.958Z,56.33
2022-08-01T02:08:36.058Z,56.67
2022-08-01T02:11:21.817Z,55.99
2022-08-01T02:13:57.784Z,55.90
2022-08-01T02:16:30.408Z,56.56
2022-08-01T02:18:58.984Z,56.05
2022-08-01T02:21:35.840Z,56.98
2022-08-01T02:24:14.909Z,55.93
2022-08-01T02:26:50.750Z,54.23
2022-08-01T02:29:27.913Z,54.10
2022-08-01T02:32:00.083Z,54.71
2022-08-01T02:34:34.759Z,56.72
2022-08-01T02:37:07.617Z,55.16
2022-08-01T02:39:38.805Z,56.03
2022-08-01T02:42:12.338Z,56.77
2022-08-01T02:44:47.090Z,56.22
2022-08-01T02:47:22.547Z,53.87
2022-08-01T02:49:57.503Z,56.05
2022-08-01T02:52:29.744Z,55.29
2022-08-01T02:54:59.696Z,56.36
2022-08-01T02:57:42.726Z,55.50
2022-08-01T03:00:23.627Z,56.83
2022-08-01T03:03:00.889Z,57.52
2022-08-01T03:05:32.922Z,57.44
2022-08-01T03:08:03.514Z,57.47
2022-08-01T03:10:34.715Z,56.42
2022-08-01T03:13:07.500Z,56.70
2022-08-01T03:15:42.510Z,55.82
2022-08-01T03:18:14.437Z,59.51
2022-08-01T03:20:45.778Z,59.24
2022-08-01T03:23:14.574Z,55.92
2022-08-01T03:25:46.485Z,58.27
2022-08-01T03:28:19.013Z,57.43
2022-08-01T03:30:52.860Z,58.94
2022-08-01T03:33:24.736Z,60.29
2022-08-01T03:35:56.207Z,60.38
2022-08-01T03:38:29.473Z,61.27
2022-08-01T03:41:01.125Z,59.49
2022-08-01T03:43:37.881Z,60.84
2022-08-01T03:46:21.309Z,60.95
2022-08-01T03:48:59.776Z,59.24
2022-08-01T03:51:29.711Z,60.58
2022-08-01T03:54:04.182Z,61.66
2022-08-01T03:56:33.358Z,62.15
2022-08-01T03:59:05.559Z,62.58
2022-08-01T04:01:36.983Z,59.67
2022-08-01T04:04:14.067Z,61.15
2022-08-01T04:06:44.580Z,62.88
2022-08-01T04:09:14.081Z,60.66
2022-08-01T04:11:45.322Z,62.40
2022-08-01T04:14:16.188Z,62.25
2022-08-01T04:16:49.410Z,60.92
2022-08-01T04:19:18.543Z,61.39
2022-08-01T04:21:46.344Z,63.45
2022-08-01T04:24:21.693Z,61.41
2022-08-01T04:26:52.368Z,62.23
2022-08-01T04:29:22.958Z,60.26
2022-08-01T04:32:25.519Z,59.65
2022-08-01T04:38:26.094Z,64.42
2022-08-01T04:41:36.260Z,63.01
2022-08-01T04:44:28.711Z,62.51
2022-08-01T04:47:27.755Z,63.70
2022-08-01T04:53:55.600Z,63.52
2022-08-01T05:00:17.866Z,63.15
2022-08-01T05:03:11.419Z,64.14
2022-08-01T05:09:17.669Z,63.19
2022-08-01T05:12:02.840Z,65.08
2022-08-01T05:14:33.106Z,63.29
2022-08-01T05:17:14.481Z,63.71
2022-08-01T05:19:43.973Z,63.94
2022-08-01T05:22:19.562Z,63.88
2022-08-01T05:24:48.278Z,63.78
2022-08-01T05:27:32.294Z,63.97
2022-08-01T05:30:03.743Z,65.33
2022-08-01T05:32:32.798Z,63.72
2022-08-01T05:35:00.937Z,65.19
2022-08-01T05:37:30.742Z,64.51
2022-08-01T05:39:58.352Z,63.95
2022-08-01T05:42:32.048Z,63.24
2022-08-01T05:45:10.106Z,64.26
2022-08-01T05:47:37.825Z,64.47
2022-08-01T05:50:23.494Z,64.69
2022-08-01T05:52:52.608Z,64.11
2022-08-01T05:55:27.197Z,64.88
2022-08-01T05:58:00.438Z,62.80
2022-08-01T06:00:32.160Z,62.93
2022-08-01T06:03:00.272Z,63.35
2022-08-01T06:05:42.421Z,63.96
2022-08-01T06:08:17.897Z,63.67
2022-08-01T06:10:45.506Z,63.81
2022-08-01T06:13:20.232Z,64.35
2022-08-01T06:15:48.791Z,63.54
2022-08-01T06:18:17.187Z,63.26
2022-08-01T06:20:53.955Z,63.80
2022-08-01T06:23:41.338Z,63.92
2022-08-01T06:26:10.781Z,64.24
2022-08-01T06:28:39.393Z,64.05
2022-08-01T06:31:07.356Z,63.61
2022-08-01T06:33:35.005Z,64.47
2022-08-01T06:36:02.600Z,64.01
2022-08-01T06:38:31.744Z,64.28
2022-08-01T06:40:59.360Z,64.12
2022-08-01T06:43:26.982Z,64.25
2022-08-01T06:45:54.644Z,64.54
2022-08-01T06:48:22.355Z,63.77
2022-08-01T06:50:50.063Z,64.54
2022-08-01T06:53:23.623Z,63.64
2022-08-01T06:55:52.506Z,64.68
2022-08-01T06:58:20.099Z,63.69
2022-08-01T07:01:08.404Z,63.41
2022-08-01T07:03:53.154Z,64.03
2022-08-01T07:06:42.356Z,64.65
2022-08-01T07:09:14.190Z,63.44
2022-08-01T07:11:43.690Z,63.91
2022-08-01T07:14:11.530Z,63.40
2022-08-01T07:16:39.094Z,63.61
2022-08-01T07:19:07.290Z,63.03
2022-08-01T07:22:04.099Z,63.12
2022-08-01T07:24:38.199Z,62.62
2022-08-01T07:27:23.908Z,62.78
2022-08-01T07:29:53.713Z,63.49
2022-08-01T07:32:25.479Z,62.71
2022-08-01T07:34:53.197Z,63.30
2022-08-01T07:37:48.153Z,62.26
2022-08-01T07:40:13.542Z,62.41
2022-08-01T07:42:47.418Z,61.77
2022-08-01T07:45:15.929Z,61.27
2022-08-01T07:47:44.807Z,61.45
2022-08-01T07:50:13.583Z,60.99
2022-08-01T07:52:41.357Z,61.09
2022-08-01T07:55:10.335Z,61.06
2022-08-01T07:57:38.175Z,61.11
2022-08-01T08:00:10.290Z,61.04
2022-08-01T08:02:40.599Z,60.63
2022-08-01T08:05:09.045Z,61.05
2022-08-01T08:07:42.198Z,61.37
2022-08-01T08:10:21.518Z,61.61
2022-08-01T08:12:52.275Z,59.04
2022-08-01T08:15:26.351Z,59.05
2022-08-01T08:17:56.540Z,58.59
2022-08-01T08:20:50.193Z,58.08
2022-08-01T08:23:42.369Z,58.50
2022-08-01T08:26:16.462Z,57.43
2022-08-01T08:28:46.145Z,56.92
2022-08-01T08:31:50.548Z,56.78
2022-08-01T08:34:02.732Z,59.12
2022-08-01T08:36:31.419Z,59.00
2022-08-01T08:39:01.399Z,59.53
2022-08-01T08:41:38.064Z,58.28
2022-08-01T08:44:06.771Z,57.57
2022-08-01T08:46:43.177Z,55.05
2022-08-01T08:49:12.005Z,57.43
2022-08-01T08:51:41.202Z,57.16
2022-08-01T08:54:42.317Z,57.84
2022-08-01T08:57:26.220Z,57.34
2022-08-01T08:59:58.026Z,56.92
2022-08-01T09:02:33.221Z,57.36
2022-08-01T09:05:01.052Z,56.25
2022-08-01T09:07:34.182Z,57.21
2022-08-01T09:13:11.937Z,57.14
2022-08-01T09:15:46.149Z,56.87
2022-08-01T09:18:34.875Z,57.41
2022-08-01T09:21:22.387Z,56.55
2022-08-01T09:24:01.624Z,54.02
2022-08-01T09:26:34.271Z,53.42
2022-08-01T09:29:37.045Z,54.37
2022-08-01T09:32:26.500Z,54.91
2022-08-01T09:34:55.788Z,55.41
2022-08-01T09:37:37.546Z,55.00
2022-08-01T09:40:06.224Z,52.74
2022-08-01T09:42:37.796Z,51.60
2022-08-01T09:45:07.294Z,52.58
2022-08-01T09:47:49.714Z,52.52
2022-08-01T09:50:44.285Z,52.58
2022-08-01T09:53:31.166Z,50.43
2022-08-01T09:56:24.497Z,50.36
2022-08-01T09:59:01.573Z,49.09
2022-08-01T10:01:36.861Z,50.85
2022-08-01T10:04:09.919Z,51.46
2022-08-01T10:06:51.022Z,51.21
2022-08-01T10:09:40.208Z,49.33
2022-08-01T10:12:09.254Z,50.30
2022-08-01T10:14:46.403Z,49.94
2022-08-01T10:20:50.926Z,49.55
2022-08-01T10:23:42.866Z,47.10
2022-08-01T10:26:23.503Z,48.74
2022-08-01T10:29:45.369Z,47.62
2022-08-01T10:32:16.468Z,47.34
2022-08-01T10:34:58.514Z,47.61
2022-08-01T10:37:35.663Z,48.90
2022-08-01T10:40:31.961Z,47.13
2022-08-01T10:43:08.081Z,47.22
2022-08-01T10:46:00.584Z,45.57
2022-08-01T10:49:21.160Z,46.40
2022-08-01T10:52:16.674Z,45.81
2022-08-01T10:55:08.482Z,45.70
2022-08-01T10:57:52.544Z,45.87
2022-08-01T11:00:21.860Z,46.91
2022-08-01T11:03:01.856Z,47.46
2022-08-01T11:05:33.461Z,46.70
2022-08-01T11:08:05.358Z,45.86
2022-08-01T11:10:39.869Z,46.69
2022-08-01T11:13:13.728Z,44.65
2022-08-01T11:15:50.160Z,43.79
2022-08-01T11:18:37.568Z,46.31
2022-08-01T11:21:57.023Z,45.02
2022-08-01T11:23:58.314Z,45.34
2022-08-01T11:26:28.851Z,46.28
2022-08-01T11:29:57.312Z,46.68
2022-08-01T11:33:11.368Z,44.99
2022-08-01T11:35:40.348Z,44.76
2022-08-01T11:38:29.015Z,43.67
2022-08-01T11:41:11.997Z,43.96
2022-08-01T11:43:59.217Z,44.03
2022-08-01T11:46:57.040Z,43.22
2022-08-01T11:49:51.560Z,43.12
2022-08-01T11:52:25.556Z,41.09
2022-08-01T11:54:55.473Z,41.78
2022-08-01T11:57:34.168Z,42.56
2022-08-01T12:00:08.430Z,44.68
2022-08-01T12:02:38.293Z,45.64
2022-08-01T12:05:11.978Z,44.47
2022-08-01T12:07:44.259Z,45.84
2022-08-01T12:10:14.432Z,46.27
2022-08-01T12:12:49.343Z,46.20
2022-08-01T12:15:18.592Z,46.07
2022-08-01T12:17:58.847Z,45.64
2022-08-01T12:20:32.371Z,44.52
2022-08-01T12:23:02.239Z,45.14
2022-08-01T12:25:30.777Z,44.07
2022-08-01T12:28:02.009Z,42.87
2022-08-01T12:30:31.907Z,43.58
2022-08-01T12:33:04.296Z,43.43
2022-08-01T12:35:32.805Z,44.01
2022-08-01T12:38:03.463Z,43.58
2022-08-01T12:40:38.223Z,45.70
2022-08-01T12:43:15.831Z,43.63
2022-08-01T12:46:06.364Z,44.38
2022-08-01T12:48:36.551Z,43.70
2022-08-01T12:51:18.534Z,43.13
2022-08-01T12:54:30.461Z,45.08
2022-08-01T12:57:58.460Z,43.78
2022-08-01T13:01:14.432Z,44.54
2022-08-01T13:04:44.305Z,43.84
2022-08-01T13:07:24.333Z,42.20
2022-08-01T13:09:52.572Z,43.69
2022-08-01T13:12:20.348Z,43.95
2022-08-01T13:14:55.917Z,42.85
2022-08-01T13:17:43.271Z,43.72
2022-08-01T13:20:52.779Z,43.88
2022-08-01T13:24:02.106Z,43.31
2022-08-01T13:26:56.838Z,43.86
2022-08-01T13:30:11.054Z,43.44
2022-08-01T13:33:03.658Z,43.72
2022-08-01T13:35:44.295Z,43.90
2022-08-01T13:41:39.038Z,43.06
2022-08-01T13:47:26.026Z,43.07
2022-08-01T13:50:04.307Z,43.15
2022-08-01T13:52:32.665Z,42.94
2022-08-01T13:55:02.474Z,43.54
2022-08-01T13:57:36.934Z,43.79
2022-08-01T14:00:10.860Z,43.54
2022-08-01T14:02:38.982Z,43.07
2022-08-01T14:05:18.717Z,44.08
2022-08-01T14:07:56.360Z,41.38
2022-08-01T14:10:34.731Z,42.39
2022-08-01T14:13:32.167Z,43.07
2022-08-01T14:16:28.671Z,40.91
2022-08-01T14:19:20.028Z,40.34
2022-08-01T14:22:08.036Z,40.81
2022-08-01T14:24:36.542Z,41.53
2022-08-01T14:27:11.273Z,40.28
2022-08-01T14:29:59.904Z,40.97
2022-08-01T14:32:34.462Z,40.77
2022-08-01T14:35:30.401Z,39.68
2022-08-01T14:38:21.898Z,39.78
2022-08-01T14:41:00.415Z,40.84
2022-08-01T14:43:45.879Z,40.73
2022-08-01T14:46:25.548Z,42.06
2022-08-01T14:48:56.378Z,41.04
2022-08-01T14:51:24.566Z,41.34
2022-08-01T14:53:55.899Z,41.42
2022-08-01T14:56:25.268Z,41.13
2022-08-01T14:58:55.042Z,40.87
2022-08-01T15:01:22.972Z,40.74
2022-08-01T15:03:51.711Z,40.10
2022-08-01T15:06:19.532Z,40.29
2022-08-01T15:08:47.245Z,40.62
2022-08-01T15:11:14.809Z,40.95
2022-08-01T15:13:50.007Z,40.14
2022-08-01T15:17:12.733Z,40.52
2022-08-01T15:19:58.877Z,40.37
2022-08-01T15:22:31.902Z,39.83
2022-08-01T15:25:23.813Z,38.97
2022-08-01T15:27:54.362Z,38.77
2022-08-01T15:30:30.703Z,39.01
2022-08-01T15:33:03.742Z,39.79
2022-08-01T15:35:32.752Z,39.74
2022-08-01T15:38:00.661Z,41.28
2022-08-01T15:40:35.207Z,41.26
2022-08-01T15:43:08.445Z,41.70
2022-08-01T15:46:07.758Z,40.47
2022-08-01T15:48:39.838Z,39.92
2022-08-01T15:51:44.554Z,40.35
2022-08-01T15:54:45.132Z,38.98
2022-08-01T15:57:41.712Z,38.45
2022-08-01T16:00:47.247Z,40.23
2022-08-01T16:03:35.567Z,38.86
2022-08-01T16:06:16.688Z,38.37
2022-08-01T16:09:01.990Z,40.27
2022-08-01T16:11:50.987Z,38.46
2022-08-01T16:14:34.614Z,38.71
2022-08-01T16:17:02.301Z,37.77
2022-08-01T16:19:31.329Z,38.65
2022-08-01T16:22:01.993Z,39.44
2022-08-01T16:24:33.712Z,39.18
2022-08-01T16:27:04.598Z,39.29
2022-08-01T16:29:32.741Z,39.42
2022-08-01T16:32:10.803Z,38.91
2022-08-01T16:34:51.994Z,39.59
2022-08-01T16:37:19.721Z,39.88
2022-08-01T16:39:48.956Z,39.66
2022-08-01T16:42:16.632Z,40.44
2022-08-01T16:44:45.122Z,39.81
2022-08-01T16:47:13.221Z,43.43
2022-08-01T16:49:41.286Z,43.16
2022-08-01T16:52:09.542Z,43.77
2022-08-01T16:54:37.753Z,44.11
2022-08-01T16:57:08.697Z,44.28
2022-08-01T16:59:41.810Z,44.99
2022-08-01T17:02:10.994Z,44.76
2022-08-01T17:04:39.046Z,45.28
2022-08-01T17:07:07.192Z,45.09
2022-08-01T17:09:37.540Z,46.13
2022-08-01T17:12:10.647Z,45.94
2022-08-01T17:14:40.085Z,46.01
2022-08-01T17:17:08.472Z,45.82
2022-08-01T17:19:36.659Z,46.79
2022-08-01T17:22:07.039Z,46.37
2022-08-01T17:24:34.768Z,46.78
2022-08-01T17:27:02.348Z,46.92
2022-08-01T17:29:43.563Z,46.73
2022-08-01T17:32:13.044Z,47.12
2022-08-01T17:34:40.965Z,46.85
2022-08-01T17:37:09.032Z,47.10
2022-08-01T17:39:39.284Z,47.00
2022-08-01T17:42:08.305Z,46.91
2022-08-01T17:44:37.612Z,46.82
2022-08-01T17:47:05.756Z,47.78
2022-08-01T17:49:53.695Z,47.54
2022-08-01T17:52:21.724Z,47.37
2022-08-01T17:54:49.463Z,47.92
2022-08-01T17:57:17.079Z,49.10
2022-08-01T17:59:46.048Z,48.82
2022-08-01T18:02:13.625Z,49.52
2022-08-01T18:04:44.144Z,49.25
2022-08-01T18:07:12.430Z,49.22
2022-08-01T18:09:45.688Z,48.95
2022-08-01T18:12:13.880Z,48.91
2022-08-01T18:14:43.893Z,49.56
2022-08-01T18:17:13.976Z,49.41
2022-08-01T18:19:41.897Z,49.62
2022-08-01T18:22:31.791Z,49.82
2022-08-01T18:25:03.943Z,49.50
2022-08-01T18:28:23.133Z,49.22
2022-08-01T18:30:24.039Z,50.47
2022-08-01T18:32:53.499Z,50.26
2022-08-01T18:35:21.230Z,50.67
2022-08-01T18:37:55.294Z,50.48
2022-08-01T18:40:23.497Z,50.03
2022-08-01T18:42:51.160Z,51.79
2022-08-01T18:45:19.021Z,49.89
2022-08-01T18:47:48.283Z,49.62
2022-08-01T18:50:17.317Z,50.60
2022-08-01T18:52:44.925Z,51.09
2022-08-01T18:55:13.216Z,51.29
2022-08-01T18:57:42.773Z,51.69
2022-08-01T19:00:11.538Z,51.46
2022-08-01T19:02:39.112Z,50.93
2022-08-01T19:05:07.586Z,49.53
2022-08-01T19:08:04.933Z,49.25
2022-08-01T19:10:24.475Z,48.91
2022-08-01T19:12:52.138Z,49.96
2022-08-01T19:15:19.937Z,49.98
2022-08-01T19:17:47.593Z,49.77
2022-08-01T19:20:15.293Z,50.50
2022-08-01T19:22:45.408Z,50.33
2022-08-01T19:25:15.137Z,50.95
2022-08-01T19:27:49.939Z,50.79
2022-08-01T19:30:18.725Z,50.43
2022-08-01T19:32:48.923Z,50.48
2022-08-01T19:35:17.986Z,50.62
2022-08-01T19:37:47.841Z,50.71
2022-08-01T19:40:26.188Z,51.32
2022-08-01T19:42:56.079Z,51.22
2022-08-01T19:45:24.648Z,51.08
2022-08-01T19:47:57.007Z,51.08
2022-08-01T19:50:25.527Z,51.44
2022-08-01T19:52:59.004Z,51.34
2022-08-01T19:55:28.837Z,51.81
2022-08-01T19:58:24.642Z,51.45
2022-08-01T20:00:49.850Z,50.85
2022-08-01T20:03:19.664Z,50.99
2022-08-01T20:05:47.788Z,51.68
2022-08-01T20:08:17.989Z,51.24
2022-08-01T20:10:47.707Z,50.98
2022-08-01T20:13:16.339Z,51.23
2022-08-01T20:15:44.946Z,51.11
2022-08-01T20:18:13.578Z,51.53
2022-08-01T20:20:41.276Z,50.63
2022-08-01T20:23:18.277Z,51.87
2022-08-01T20:25:51.237Z,51.54
2022-08-01T20:28:27.062Z,51.63
2022-08-01T20:30:58.475Z,50.67
2022-08-01T20:33:36.976Z,50.57
2022-08-01T20:36:11.954Z,50.88
2022-08-01T20:38:55.144Z,51.90
2022-08-01T20:41:26.987Z,50.83
2022-08-01T20:43:56.439Z,50.76
2022-08-01T20:46:26.307Z,51.34
2022-08-01T20:48:55.597Z,51.07
2022-08-01T20:51:25.337Z,51.18
2022-08-01T20:53:53.674Z,51.50
2022-08-01T20:56:30.769Z,50.59
2022-08-01T20:59:07.030Z,51.35
2022-08-01T21:01:43.548Z,50.57
2022-08-01T21:04:22.110Z,50.96
2022-08-01T21:06:55.362Z,51.15
2022-08-01T21:09:25.227Z,51.24
2022-08-01T21:11:59.244Z,51.06
2022-08-01T21:14:38.735Z,51.98
2022-08-01T21:17:11.988Z,51.67
2022-08-01T21:19:43.460Z,51.43
2022-08-01T21:22:17.143Z,51.69
2022-08-01T21:24:58.272Z,51.86
2022-08-01T21:27:33.701Z,51.62
2022-08-01T21:30:05.251Z,51.82
2022-08-01T21:32:34.649Z,52.24
2022-08-01T21:35:04.626Z,51.87
2022-08-01T21:37:32.427Z,51.63
2022-08-01T21:40:09.632Z,51.83
2022-08-01T21:42:40.552Z,52.11
2022-08-01T21:45:10.643Z,52.08
2022-08-01T21:47:38.714Z,51.87
2022-08-01T21:50:09.489Z,52.12
2022-08-01T21:52:44.793Z,52.07
2022-08-01T21:55:18.687Z,52.67
2022-08-01T21:58:06.255Z,52.58
2022-08-01T22:00:37.584Z,52.56
2022-08-01T22:03:21.696Z,52.46
2022-08-01T22:05:51.780Z,52.52
2022-08-01T22:08:29.896Z,53.34
2022-08-01T22:11:04.776Z,52.29
2022-08-01T22:13:34.587Z,52.94
2022-08-01T22:16:05.971Z,52.12
2022-08-01T22:18:36.877Z,53.08
2022-08-01T22:21:07.295Z,52.92
2022-08-01T22:23:36.843Z,53.08
2022-08-01T22:26:08.141Z,52.80
2022-08-01T22:28:38.245Z,52.47
2022-08-01T22:31:07.162Z,53.15
2022-08-01T22:33:36.579Z,53.12
2022-08-01T22:36:05.646Z,53.57
2022-08-01T22:38:33.502Z,53.08
2022-08-01T22:41:04.248Z,53.61
2022-08-01T22:43:43.165Z,53.36
2022-08-01T22:46:24.923Z,53.77
2022-08-01T22:48:57.736Z,53.87
2022-08-01T22:51:39.604Z,53.88
2022-08-01T22:54:10.202Z,53.47
2022-08-01T22:56:43.673Z,53.64
2022-08-01T22:59:16.486Z,54.15
2022-08-01T23:01:50.477Z,54.04
2022-08-01T23:04:24.281Z,54.14
2022-08-01T23:07:05.531Z,57.01
2022-08-01T23:09:52.580Z,60.58
2022-08-01T23:12:23.752Z,54.65
2022-08-01T23:14:54.706Z,54.80
2022-08-01T23:17:26.644Z,54.76
2022-08-01T23:19:58.272Z,54.40
2022-08-01T23:22:30.166Z,54.81
2022-08-01T23:25:03.653Z,54.96
2022-08-01T23:28:03.066Z,54.30
2022-08-01T23:30:25.461Z,54.18
2022-08-01T23:32:53.322Z,54.08
2022-08-01T23:35:21.591Z,65.59
2022-08-01T23:37:51.037Z,61.58
2022-08-01T23:40:19.680Z,56.15
2022-08-01T23:42:47.450Z,55.46
2022-08-01T23:45:15.433Z,55.47
2022-08-01T23:47:44.355Z,55.63
2022-08-01T23:50:12.467Z,55.04
2022-08-01T23:52:48.426Z,55.13
2022-08-01T23:55:18.003Z,55.12
2022-08-01T23:57:45.615Z,55.70
